createdAt,value
2022-08-09T00:01:54.924Z,46.43
2022-08-09T00:04:35.029Z,46.88
2022-08-09T00:07:03.799Z,47.03
2022-08-09T00:09:40.123Z,47.32
2022-08-09T00:12:08.365Z,47.58
2022-08-09T00:14:39.348Z,48.55
2022-08-09T00:17:08.484Z,48.82
2022-08-09T00:19:57.529Z,49.29
2022-08-09T00:22:25.767Z,48.93
2022-08-09T00:25:12.836Z,49.48
2022-08-09T00:27:43.065Z,48.88
2022-08-09T00:30:24.942Z,49.43
2022-08-09T00:32:54.297Z,50.10
2022-08-09T00:35:24.792Z,49.81
2022-08-09T00:37:54.272Z,50.03
2022-08-09T00:40:22.481Z,50.45
2022-08-09T00:44:16.376Z,49.89
2022-08-09T00:45:54.185Z,50.35
2022-08-09T00:48:22.408Z,50.90
2022-08-09T00:50:52.391Z,51.57
2022-08-09T00:53:23.938Z,51.33
2022-08-09T00:56:05.425Z,51.69
2022-08-09T00:58:39.118Z,51.61
2022-08-09T01:01:15.950Z,52.01
2022-08-09T01:03:49.210Z,52.56
2022-08-09T01:06:22.417Z,52.67
2022-08-09T01:08:57.776Z,53.46
2022-08-09T01:11:35.115Z,53.27
2022-08-09T01:14:05.321Z,52.92
2022-08-09T01:16:37.069Z,52.90
2022-08-09T01:19:17.193Z,53.88
2022-08-09T01:22:16.452Z,54.15
2022-08-09T01:24:50.399Z,53.71
2022-08-09T01:27:23.848Z,54.25
2022-08-09T01:29:55.858Z,53.79
2022-08-09T01:32:31.362Z,54.23
2022-08-09T01:35:07.205Z,54.03
2022-08-09T01:38:08.023Z,54.16
2022-08-09T01:40:37.309Z,54.44
2022-08-09T01:43:06.732Z,54.04
2022-08-09T01:45:35.887Z,54.45
2022-08-09T01:48:16.100Z,55.30
2022-08-09T01:50:48.358Z,54.53
2022-08-09T01:53:19.995Z,54.95
2022-08-09T01:55:48.400Z,55.29
2022-08-09T01:58:18.851Z,55.24
2022-08-09T02:00:54.284Z,55.22
2022-08-09T02:03:22.629Z,55.47
2022-08-09T02:06:03.304Z,55.22
2022-08-09T02:08:38.437Z,55.76
2022-08-09T02:11:21.367Z,55.86
2022-08-09T02:14:06.124Z,56.04
2022-08-09T02:16:52.911Z,56.16
2022-08-09T02:19:38.500Z,56.09
2022-08-09T02:22:11.560Z,55.60
2022-08-09T02:24:39.653Z,55.95
2022-08-09T02:27:10.392Z,55.73
2022-08-09T02:29:42.764Z,55.90
2022-08-09T02:32:12.244Z,55.46
2022-08-09T02:34:55.999Z,55.77
2022-08-09T02:37:31.708Z,55.74
2022-08-09T02:40:09.297Z,56.07
2022-08-09T02:42:39.872Z,55.29
2022-08-09T02:45:12.870Z,56.10
2022-08-09T02:47:58.022Z,55.81
2022-08-09T02:50:28.471Z,55.75
2022-08-09T02:53:01.101Z,55.86
2022-08-09T02:55:46.588Z,55.97
2022-08-09T02:58:36.153Z,56.52
2022-08-09T03:01:10.657Z,56.27
2022-08-09T03:04:16.709Z,56.43
2022-08-09T03:06:29.015Z,56.26
2022-08-09T03:09:04.808Z,56.76
2022-08-09T03:12:05.311Z,56.13
2022-08-09T03:14:28.383Z,56.77
2022-08-09T03:16:58.198Z,56.45
2022-08-09T03:19:52.198Z,56.48
2022-08-09T03:22:25.015Z,56.42
2022-08-09T03:25:21.435Z,56.56
2022-08-09T03:27:50.050Z,56.62
2022-08-09T03:30:29.733Z,56.65
2022-08-09T03:33:12.730Z,56.42
2022-08-09T03:36:15.698Z,56.11
2022-08-09T03:38:42.705Z,56.27
2022-08-09T03:41:15.440Z,56.67
2022-08-09T03:44:03.285Z,56.75
2022-08-09T03:46:35.339Z,56.54
2022-08-09T03:49:07.973Z,56.43
2022-08-09T03:51:56.612Z,56.49
2022-08-09T03:54:31.384Z,56.44
2022-08-09T03:57:02.282Z,56.33
2022-08-09T03:59:43.001Z,56.29
2022-08-09T04:02:26.734Z,55.79
2022-08-09T04:05:06.621Z,56.21
2022-08-09T04:07:53.505Z,55.66
2022-08-09T04:10:28.841Z,55.86
2022-08-09T04:13:01.097Z,55.51
2022-08-09T04:16:17.651Z,55.47
2022-08-09T04:18:22.360Z,56.04
2022-08-09T04:20:55.759Z,55.99
2022-08-09T04:23:25.679Z,55.83
2022-08-09T04:25:54.219Z,55.72
2022-08-09T04:28:33.647Z,55.74
2022-08-09T04:31:09.243Z,55.31
2022-08-09T04:33:47.665Z,55.26
2022-08-09T04:36:25.583Z,56.58
2022-08-09T04:38:55.307Z,58.77
2022-08-09T04:41:24.314Z,59.40
2022-08-09T04:44:06.262Z,59.05
2022-08-09T04:46:58.170Z,60.24
2022-08-09T04:49:52.836Z,62.63
2022-08-09T04:52:26.599Z,62.15
2022-08-09T04:54:56.213Z,61.65
2022-08-09T04:57:25.608Z,61.53
2022-08-09T04:59:55.861Z,62.55
2022-08-09T05:02:27.464Z,62.06
2022-08-09T05:04:56.315Z,61.08
2022-08-09T05:07:29.100Z,62.32
2022-08-09T05:10:01.740Z,62.31
2022-08-09T05:12:35.354Z,62.28
2022-08-09T05:15:11.486Z,63.25
2022-08-09T05:18:37.560Z,62.16
2022-08-09T05:20:29.991Z,62.00
2022-08-09T05:23:55.563Z,61.40
2022-08-09T05:25:51.345Z,61.75
2022-08-09T05:28:20.511Z,60.98
2022-08-09T05:30:51.537Z,61.06
2022-08-09T05:33:19.908Z,60.62
2022-08-09T05:35:57.179Z,60.22
2022-08-09T05:38:28.092Z,61.01
2022-08-09T05:40:57.561Z,60.48
2022-08-09T05:43:31.753Z,60.31
2022-08-09T05:46:01.739Z,60.71
2022-08-09T05:48:33.232Z,61.03
2022-08-09T05:51:43.175Z,60.51
2022-08-09T05:53:57.227Z,62.20
2022-08-09T05:56:28.337Z,62.59
2022-08-09T05:58:59.211Z,61.89
2022-08-09T06:01:33.784Z,61.50
2022-08-09T06:04:05.603Z,62.54
2022-08-09T06:06:34.423Z,62.11
2022-08-09T06:09:10.074Z,62.85
2022-08-09T06:11:57.047Z,62.05
2022-08-09T06:14:27.364Z,62.01
2022-08-09T06:16:59.588Z,61.99
2022-08-09T06:19:37.109Z,62.34
2022-08-09T06:22:06.226Z,61.78
2022-08-09T06:24:45.784Z,61.71
2022-08-09T06:27:18.615Z,61.17
2022-08-09T06:30:04.405Z,61.81
2022-08-09T06:33:00.608Z,59.99
2022-08-09T06:35:35.882Z,59.16
2022-08-09T06:38:15.939Z,58.59
2022-08-09T06:40:45.818Z,58.41
2022-08-09T06:43:14.196Z,57.85
2022-08-09T06:46:07.723Z,57.70
2022-08-09T06:48:31.301Z,57.35
2022-08-09T06:50:59.761Z,56.98
2022-08-09T06:53:33.400Z,56.83
2022-08-09T06:56:09.088Z,56.54
2022-08-09T07:00:49.453Z,56.25
2022-08-09T07:01:35.661Z,56.28
2022-08-09T07:04:20.163Z,56.08
2022-08-09T07:06:48.496Z,55.99
2022-08-09T07:09:55.497Z,55.91
2022-08-09T07:12:17.552Z,55.72
2022-08-09T07:14:50.690Z,55.81
2022-08-09T07:17:19.831Z,55.71
2022-08-09T07:19:48.221Z,55.31
2022-08-09T07:22:18.679Z,55.17
2022-08-09T07:25:05.122Z,55.37
2022-08-09T07:27:42.891Z,55.00
2022-08-09T07:30:21.698Z,54.68
2022-08-09T07:32:53.307Z,54.77
2022-08-09T07:35:22.905Z,54.65
2022-08-09T07:37:50.970Z,54.59
2022-08-09T07:40:26.972Z,54.21
2022-08-09T07:43:03.458Z,54.14
2022-08-09T07:45:42.665Z,54.13
2022-08-09T07:48:22.434Z,54.33
2022-08-09T07:51:09.560Z,54.18
2022-08-09T07:54:05.178Z,53.85
2022-08-09T07:56:34.646Z,53.97
2022-08-09T07:59:14.072Z,53.67
2022-08-09T08:01:55.740Z,53.64
2022-08-09T08:04:25.567Z,53.54
2022-08-09T08:07:27.128Z,53.51
2022-08-09T08:09:53.371Z,53.64
2022-08-09T08:12:36.468Z,53.50
2022-08-09T08:15:07.561Z,53.08
2022-08-09T08:17:54.462Z,53.03
2022-08-09T08:20:27.265Z,53.26
2022-08-09T08:22:58.713Z,52.95
2022-08-09T08:25:43.902Z,52.99
2022-08-09T08:28:14.927Z,52.79
2022-08-09T08:30:44.943Z,52.80
2022-08-09T08:33:21.785Z,52.77
2022-08-09T08:35:59.531Z,53.04
2022-08-09T08:38:28.882Z,52.77
2022-08-09T08:40:57.335Z,52.81
2022-08-09T08:43:27.183Z,52.93
2022-08-09T08:46:00.133Z,52.52
2022-08-09T08:48:51.870Z,52.68
2022-08-09T08:51:22.575Z,52.59
2022-08-09T08:54:02.657Z,52.46
2022-08-09T08:56:32.161Z,52.39
2022-08-09T08:59:01.568Z,52.72
2022-08-09T09:01:52.426Z,52.49
2022-08-09T09:04:26.808Z,52.17
2022-08-09T09:06:56.934Z,52.00
2022-08-09T09:09:57.792Z,52.36
2022-08-09T09:12:16.934Z,52.06
2022-08-09T09:14:45.275Z,51.76
2022-08-09T09:17:16.339Z,52.09
2022-08-09T09:19:44.675Z,51.91
2022-08-09T09:22:15.864Z,51.42
2022-08-09T09:24:44.887Z,51.83
2022-08-09T09:28:02.787Z,51.74
2022-08-09T09:30:22.775Z,51.35
2022-08-09T09:33:23.975Z,51.20
2022-08-09T09:36:01.658Z,51.14
2022-08-09T09:38:44.663Z,51.47
2022-08-09T09:41:12.852Z,51.03
2022-08-09T09:44:10.302Z,51.27
2022-08-09T09:46:50.558Z,51.30
2022-08-09T09:49:31.913Z,51.25
2022-08-09T09:52:16.353Z,50.85
2022-08-09T09:55:02.661Z,50.69
2022-08-09T09:58:00.979Z,51.03
2022-08-09T10:00:33.801Z,50.93
2022-08-09T10:03:09.215Z,50.54
2022-08-09T10:06:05.172Z,50.66
2022-08-09T10:08:54.280Z,50.44
2022-08-09T10:12:00.613Z,50.40
2022-08-09T10:14:30.464Z,50.44
2022-08-09T10:17:11.519Z,50.43
2022-08-09T10:19:52.830Z,50.82
2022-08-09T10:22:34.601Z,50.58
2022-08-09T10:25:11.120Z,50.71
2022-08-09T10:27:45.202Z,50.30
2022-08-09T10:32:00.075Z,50.38
2022-08-09T10:33:29.847Z,50.61
2022-08-09T10:36:00.885Z,50.27
2022-08-09T10:38:43.191Z,50.03
2022-08-09T10:41:20.593Z,50.23
2022-08-09T10:44:00.889Z,49.91
2022-08-09T10:46:55.614Z,50.12
2022-08-09T10:49:50.283Z,49.92
2022-08-09T10:52:30.907Z,50.24
2022-08-09T10:55:19.476Z,49.61
2022-08-09T10:57:51.713Z,49.64
2022-08-09T11:00:37.538Z,49.83
2022-08-09T11:03:27.317Z,49.55
2022-08-09T11:06:22.983Z,49.73
2022-08-09T11:08:53.961Z,49.53
2022-08-09T11:11:24.123Z,49.49
2022-08-09T11:14:29.003Z,49.62
2022-08-09T11:17:00.261Z,49.64
2022-08-09T11:20:11.619Z,49.50
2022-08-09T11:23:07.140Z,49.50
2022-08-09T11:25:47.473Z,49.25
2022-08-09T11:28:55.815Z,48.95
2022-08-09T11:31:49.413Z,49.16
2022-08-09T11:34:36.582Z,49.14
2022-08-09T11:37:07.314Z,49.10
2022-08-09T11:40:02.887Z,49.22
2022-08-09T11:42:46.999Z,48.78
2022-08-09T11:45:21.966Z,48.76
2022-08-09T11:47:50.595Z,48.73
2022-08-09T11:50:54.792Z,48.82
2022-08-09T11:53:28.031Z,48.96
2022-08-09T11:56:41.468Z,48.62
2022-08-09T11:59:12.360Z,48.52
2022-08-09T12:02:34.305Z,48.46
2022-08-09T12:04:37.531Z,49.05
2022-08-09T12:07:12.096Z,48.68
2022-08-09T12:09:50.494Z,48.52
2022-08-09T12:12:28.595Z,48.25
2022-08-09T12:15:08.009Z,48.71
2022-08-09T12:17:45.671Z,48.34
2022-08-09T12:20:22.407Z,48.77
2022-08-09T12:22:51.395Z,48.68
2022-08-09T12:25:36.420Z,48.68
2022-08-09T12:29:12.072Z,48.43
2022-08-09T12:30:58.806Z,48.23
2022-08-09T12:33:51.405Z,48.20
2022-08-09T12:36:27.727Z,48.21
2022-08-09T12:39:00.826Z,48.29
2022-08-09T12:41:30.382Z,48.38
2022-08-09T12:44:06.390Z,48.16
2022-08-09T12:46:36.189Z,48.26
2022-08-09T12:49:07.265Z,48.06
2022-08-09T12:52:00.064Z,48.37
2022-08-09T12:54:23.991Z,48.11
2022-08-09T12:56:54.062Z,48.19
2022-08-09T12:59:23.292Z,48.08
2022-08-09T13:02:02.620Z,48.29
2022-08-09T13:04:37.988Z,48.37
2022-08-09T13:07:13.804Z,48.11
2022-08-09T13:09:52.782Z,48.03
2022-08-09T13:12:24.099Z,47.93
2022-08-09T13:14:54.931Z,48.35
2022-08-09T13:17:58.627Z,48.04
2022-08-09T13:20:16.303Z,48.10
2022-08-09T13:23:05.677Z,48.29
2022-08-09T13:25:42.622Z,48.23
2022-08-09T13:28:18.745Z,48.03
2022-08-09T13:32:15.937Z,47.71
2022-08-09T13:33:54.384Z,47.98
2022-08-09T13:36:41.134Z,48.15
2022-08-09T13:41:17.364Z,48.12
2022-08-09T13:42:03.750Z,48.17
2022-08-09T13:44:32.076Z,47.96
2022-08-09T13:47:27.063Z,47.83
2022-08-09T13:49:56.500Z,47.50
2022-08-09T13:52:27.524Z,47.50
2022-08-09T13:55:00.898Z,47.46
2022-08-09T13:57:35.632Z,47.51
2022-08-09T14:00:06.979Z,47.79
2022-08-09T14:02:36.169Z,47.83
2022-08-09T14:05:13.505Z,47.35
2022-08-09T14:08:01.509Z,47.37
2022-08-09T14:10:46.100Z,47.42
2022-08-09T14:13:21.882Z,47.47
2022-08-09T14:16:10.131Z,47.25
2022-08-09T14:18:38.768Z,47.66
2022-08-09T14:21:17.272Z,47.60
2022-08-09T14:23:55.144Z,47.36
2022-08-09T14:26:30.294Z,47.25
2022-08-09T14:29:02.603Z,47.29
2022-08-09T14:31:35.730Z,46.99
2022-08-09T14:34:31.760Z,47.48
2022-08-09T14:37:02.057Z,46.99
2022-08-09T14:39:45.883Z,47.23
2022-08-09T14:42:30.134Z,47.19
2022-08-09T14:46:57.171Z,46.97
2022-08-09T14:47:57.293Z,46.85
2022-08-09T14:50:28.485Z,46.63
2022-08-09T14:52:56.534Z,46.81
2022-08-09T14:55:31.944Z,46.64
2022-08-09T14:58:03.276Z,46.53
2022-08-09T15:00:32.358Z,46.74
2022-08-09T15:03:01.886Z,46.81
2022-08-09T15:05:32.094Z,46.49
2022-08-09T15:08:00.048Z,46.66
2022-08-09T15:10:31.595Z,46.09
2022-08-09T15:12:59.944Z,46.30
2022-08-09T15:15:29.730Z,46.08
2022-08-09T15:18:02.610Z,46.22
2022-08-09T15:21:57.535Z,46.19
2022-08-09T15:24:02.953Z,46.32
2022-08-09T15:26:19.091Z,46.00
2022-08-09T15:28:56.511Z,45.97
2022-08-09T15:31:40.408Z,45.95
2022-08-09T15:34:27.431Z,46.00
2022-08-09T15:36:58.683Z,45.94
2022-08-09T15:39:43.880Z,46.22
2022-08-09T15:42:16.143Z,45.77
2022-08-09T15:44:47.191Z,46.09
2022-08-09T15:47:23.504Z,45.68
2022-08-09T15:50:05.017Z,46.08
2022-08-09T15:52:34.619Z,45.93
2022-08-09T15:55:02.973Z,45.71
2022-08-09T15:57:35.350Z,45.61
2022-08-09T16:00:15.257Z,45.89
2022-08-09T16:02:53.587Z,46.12
2022-08-09T16:05:22.976Z,45.88
2022-08-09T16:07:51.292Z,46.01
2022-08-09T16:10:54.756Z,46.06
2022-08-09T16:13:18.377Z,46.50
2022-08-09T16:16:10.788Z,46.43
2022-08-09T16:18:35.071Z,46.22
2022-08-09T16:21:03.083Z,46.33
2022-08-09T16:23:31.320Z,46.83
2022-08-09T16:26:01.049Z,46.40
2022-08-09T16:28:32.377Z,46.91
2022-08-09T16:31:00.373Z,47.08
2022-08-09T16:33:30.927Z,47.21
2022-08-09T16:36:08.450Z,47.08
2022-08-09T16:38:39.997Z,47.02
2022-08-09T16:41:08.094Z,47.08
2022-08-09T16:43:46.754Z,47.22
2022-08-09T16:46:18.419Z,47.59
2022-08-09T16:48:54.001Z,47.83
2022-08-09T16:51:27.455Z,47.31
2022-08-09T16:54:25.187Z,47.75
2022-08-09T16:56:49.434Z,47.49
2022-08-09T16:59:19.500Z,47.47
2022-08-09T17:01:51.377Z,47.90
2022-08-09T17:04:26.066Z,47.88
2022-08-09T17:08:43.669Z,47.57
2022-08-09T17:09:47.436Z,47.83
2022-08-09T17:12:16.043Z,47.64
2022-08-09T17:14:47.862Z,48.10
2022-08-09T17:17:26.922Z,47.74
2022-08-09T17:20:29.289Z,48.24
2022-08-09T17:22:49.969Z,48.19
2022-08-09T17:25:19.249Z,48.17
2022-08-09T17:27:48.930Z,48.26
2022-08-09T17:30:19.835Z,48.11
2022-08-09T17:32:48.545Z,48.53
2022-08-09T17:35:16.610Z,48.61
2022-08-09T17:38:11.635Z,48.50
2022-08-09T17:40:34.547Z,48.29
2022-08-09T17:43:03.265Z,48.32
2022-08-09T17:46:03.738Z,48.16
2022-08-09T17:48:28.806Z,48.10
2022-08-09T17:51:01.717Z,48.34
2022-08-09T17:53:43.479Z,48.33
2022-08-09T17:56:20.732Z,48.32
2022-08-09T17:58:48.773Z,48.56
2022-08-09T18:01:23.169Z,48.74
2022-08-09T18:03:54.599Z,48.70
2022-08-09T18:06:31.068Z,50.94
2022-08-09T18:09:01.943Z,53.55
2022-08-09T18:12:05.085Z,55.01
2022-08-09T18:14:20.657Z,57.37
2022-08-09T18:16:54.922Z,58.24
2022-08-09T18:20:55.189Z,57.94
2022-08-09T18:22:17.295Z,58.35
2022-08-09T18:24:46.513Z,58.73
2022-08-09T18:27:33.675Z,59.12
2022-08-09T18:30:40.619Z,60.38
2022-08-09T18:32:54.305Z,59.57
2022-08-09T18:35:59.900Z,61.47
2022-08-09T18:38:11.821Z,62.30
2022-08-09T18:40:40.752Z,62.42
2022-08-09T18:43:10.261Z,61.18
2022-08-09T18:46:49.930Z,60.91
2022-08-09T18:48:30.436Z,61.40
2022-08-09T18:51:01.255Z,62.60
2022-08-09T18:53:56.966Z,62.40
2022-08-09T18:56:20.095Z,62.33
2022-08-09T18:58:56.576Z,62.97
2022-08-09T19:01:24.668Z,63.09
2022-08-09T19:04:01.196Z,62.40
2022-08-09T19:06:34.722Z,62.39
2022-08-09T19:09:06.517Z,63.01
2022-08-09T19:11:35.390Z,63.39
2022-08-09T19:14:06.409Z,64.37
2022-08-09T19:16:36.333Z,62.66
2022-08-09T19:19:21.287Z,64.33
2022-08-09T19:22:04.750Z,64.02
2022-08-09T19:24:39.292Z,63.64
2022-08-09T19:27:23.199Z,63.75
2022-08-09T19:30:22.117Z,63.39
2022-08-09T19:32:40.298Z,63.19
2022-08-09T19:35:10.275Z,65.51
2022-08-09T19:37:41.073Z,64.95
2022-08-09T19:40:34.472Z,64.75
2022-08-09T19:43:05.347Z,65.63
2022-08-09T19:45:40.373Z,64.41
2022-08-09T19:48:10.723Z,64.53
2022-08-09T19:50:50.186Z,64.23
2022-08-09T19:53:21.493Z,64.61
2022-08-09T19:56:03.332Z,63.53
2022-08-09T19:58:35.795Z,63.56
2022-08-09T20:01:04.007Z,64.49
2022-08-09T20:04:17.373Z,64.71
2022-08-09T20:06:29.744Z,65.77
2022-08-09T20:08:59.672Z,66.58
2022-08-09T20:11:43.453Z,64.71
2022-08-09T20:14:16.512Z,63.24
2022-08-09T20:16:53.829Z,61.82
2022-08-09T20:19:48.599Z,61.26
2022-08-09T20:22:14.294Z,60.58
2022-08-09T20:24:42.997Z,60.24
2022-08-09T20:27:22.587Z,60.03
2022-08-09T20:29:50.701Z,59.77
2022-08-09T20:32:29.831Z,59.63
2022-08-09T20:35:07.472Z,59.07
2022-08-09T20:38:21.086Z,59.03
2022-08-09T20:40:27.691Z,58.72
2022-08-09T20:43:00.108Z,58.55
2022-08-09T20:45:59.385Z,58.27
2022-08-09T20:48:30.670Z,57.98
2022-08-09T20:51:01.296Z,57.71
2022-08-09T20:53:37.318Z,57.52
2022-08-09T20:56:20.835Z,57.28
2022-08-09T20:58:50.626Z,57.12
2022-08-09T21:01:35.466Z,57.09
2022-08-09T21:05:55.075Z,56.96
2022-08-09T21:06:59.067Z,56.72
2022-08-09T21:09:55.620Z,56.99
2022-08-09T21:15:14.223Z,56.56
2022-08-09T21:18:11.465Z,56.59
2022-08-09T21:20:30.887Z,57.03
2022-08-09T21:23:00.287Z,57.20
2022-08-09T21:25:55.386Z,56.74
2022-08-09T21:28:34.226Z,56.62
2022-08-09T21:31:17.344Z,56.59
2022-08-09T21:33:52.442Z,56.40
2022-08-09T21:36:25.741Z,56.54
2022-08-09T21:38:57.655Z,56.25
2022-08-09T21:42:04.189Z,56.18
2022-08-09T21:44:32.959Z,56.07
2022-08-09T21:47:03.958Z,56.05
2022-08-09T21:49:40.094Z,55.97
2022-08-09T21:52:16.578Z,56.05
2022-08-09T21:54:56.869Z,55.83
2022-08-09T21:57:39.169Z,55.61
2022-08-09T22:00:26.135Z,55.64
2022-08-09T22:02:58.111Z,55.58
2022-08-09T22:05:36.809Z,55.38
2022-08-09T22:08:13.667Z,55.47
2022-08-09T22:11:00.388Z,55.61
2022-08-09T22:13:34.533Z,55.57
2022-08-09T22:16:04.817Z,55.41
2022-08-09T22:18:37.089Z,55.44
2022-08-09T22:21:09.231Z,55.72
2022-08-09T22:23:59.632Z,55.26
2022-08-09T22:26:35.603Z,55.47
2022-08-09T22:29:09.088Z,55.48
2022-08-09T22:31:37.704Z,55.66
2022-08-09T22:34:14.901Z,55.62
2022-08-09T22:36:45.578Z,55.68
2022-08-09T22:39:46.876Z,55.45
2022-08-09T22:42:06.177Z,55.36
2022-08-09T22:44:45.869Z,55.37
2022-08-09T22:48:16.875Z,55.33
2022-08-09T22:50:01.881Z,55.29
2022-08-09T22:52:30.241Z,55.06
2022-08-09T22:55:00.103Z,55.02
2022-08-09T22:57:35.524Z,55.06
2022-08-09T23:00:06.351Z,55.15
2022-08-09T23:02:39.970Z,54.91
2022-08-09T23:05:13.088Z,54.88
2022-08-09T23:08:22.352Z,55.08
2022-08-09T23:10:49.662Z,54.92
2022-08-09T23:13:17.640Z,54.84
2022-08-09T23:16:02.597Z,54.84
2022-08-09T23:18:31.802Z,55.03
2022-08-09T23:20:59.798Z,54.77
2022-08-09T23:23:27.752Z,54.89
2022-08-09T23:25:55.881Z,54.79
2022-08-09T23:28:23.983Z,54.87
2022-08-09T23:30:53.427Z,54.85
2022-08-09T23:33:21.525Z,55.06
2022-08-09T23:36:05.519Z,54.93
2022-08-09T23:38:35.394Z,54.99
2022-08-09T23:41:03.856Z,54.79
2022-08-09T23:43:31.930Z,54.62
2022-08-09T23:46:01.606Z,54.67
2022-08-09T23:48:29.664Z,54.53
2022-08-09T23:50:57.692Z,54.47
2022-08-09T23:53:25.707Z,54.66
2022-08-09T23:56:00.117Z,54.75
2022-08-09T23:58:29.998Z,54.76
